Time;durP1;ratioP1;P1;durP2;ratioP2;P2;SDS_P1;SDS_P2;PMS_P1;PMS_P2;Temp;Humidity;BMP_temperature;BMP_pressure;BME280_temperature;BME280_humidity;BME280_pressure;Samples;Min_cycle;Max_cycle;Signal;HPM_P1;HPM_P2
2023/04/18 00:01:20;;;;;;;6.40;4.60;;;;;;;19.07;41.68;102515.56;5000901;28;20469;-69
2023/04/18 00:03:46;;;;;;;5.80;4.22;;;;;;;19.02;41.72;102507.88;4969681;28;20070;-71
2023/04/18 00:06:12;;;;;;;6.90;4.53;;;;;;;19.05;41.62;102506.88;4997860;28;20132;-71
2023/04/18 00:08:38;;;;;;;5.82;4.03;;;;;;;19.05;41.70;102504.22;4983564;28;20609;-69
2023/04/18 00:11:03;;;;;;;5.88;4.07;;;;;;;19.02;41.20;102505.25;4986794;28;20153;-72
2023/04/18 00:13:28;;;;;;;8.20;4.57;;;;;;;19.03;41.76;102506.13;4986338;28;20038;-69
2023/04/18 00:15:54;;;;;;;6.13;4.50;;;;;;;19.01;41.57;102508.00;4999433;28;20037;-69
2023/04/18 00:18:20;;;;;;;6.05;4.57;;;;;;;19.02;41.48;102507.88;4993104;28;20057;-69
2023/04/18 00:20:45;;;;;;;6.43;4.30;;;;;;;19.02;41.44;102509.69;4987886;28;20031;-69
2023/04/18 00:23:12;;;;;;;6.78;4.60;;;;;;;19.02;41.61;102509.69;4981669;28;20499;-70
2023/04/18 00:25:38;;;;;;;6.18;4.35;;;;;;;18.99;41.31;102505.47;4981352;28;20057;-74
2023/04/18 00:28:03;;;;;;;6.20;4.15;;;;;;;18.98;41.45;102506.38;5000024;28;20030;-70
2023/04/18 00:30:28;;;;;;;7.07;4.80;;;;;;;19.00;41.56;102501.00;4992212;28;20100;-69
2023/04/18 00:32:54;;;;;;;6.03;4.38;;;;;;;18.97;41.41;102495.91;4989418;28;20109;-71
2023/04/18 00:35:19;;;;;;;5.80;4.43;;;;;;;18.96;41.42;102497.72;4983319;28;20084;-70
2023/04/18 00:37:44;;;;;;;7.20;4.60;;;;;;;18.97;41.20;102495.91;4982255;28;20430;-69
2023/04/18 00:40:10;;;;;;;7.03;4.70;;;;;;;18.95;41.32;102490.72;4991471;28;20323;-70
2023/04/18 00:42:35;;;;;;;7.15;4.32;;;;;;;18.97;41.25;102495.91;4989296;28;20316;-72
2023/04/18 00:45:00;;;;;;;6.33;4.30;;;;;;;18.98;41.21;102497.63;4983327;28;20125;-72
2023/04/18 00:47:26;;;;;;;5.75;4.20;;;;;;;18.96;41.01;102495.06;4983529;28;20268;-70
2023/04/18 00:49:51;;;;;;;7.35;4.78;;;;;;;18.93;41.23;102489.97;4997389;28;20176;-72
2023/04/18 00:52:17;;;;;;;6.88;4.82;;;;;;;18.94;41.13;102501.38;4991155;28;20125;-69
2023/04/18 00:54:43;;;;;;;6.82;4.47;;;;;;;18.92;41.10;102490.91;4994716;28;20455;-69
2023/04/18 00:57:09;;;;;;;7.22;4.75;;;;;;;18.94;41.05;102493.44;4985986;28;20042;-71
2023/04/18 00:59:35;;;;;;;7.10;4.82;;;;;;;18.90;41.33;102487.50;4980945;28;20052;-71
2023/04/18 01:02:02;;;;;;;7.07;4.07;;;;;;;18.91;41.24;102498.91;4997237;28;20908;-73
2023/04/18 01:04:27;;;;;;;6.13;4.47;;;;;;;18.89;41.15;102493.72;5004154;28;20029;-70
2023/04/18 01:06:53;;;;;;;5.93;4.18;;;;;;;18.90;41.24;102495.44;5004557;28;20038;-70
2023/04/18 01:09:19;;;;;;;6.85;4.60;;;;;;;18.89;41.05;102493.72;4993109;28;20035;-70
2023/04/18 01:11:44;;;;;;;6.38;4.35;;;;;;;18.88;40.96;102488.53;4996468;28;20089;-70
2023/04/18 01:14:09;;;;;;;5.85;4.07;;;;;;;18.88;41.01;102497.28;4984866;28;20030;-69
2023/04/18 01:16:38;;;;;;;6.03;4.50;;;;;;;18.82;41.14;102485.28;4994052;28;20456;-70
2023/04/18 01:19:03;;;;;;;6.20;4.30;;;;;;;18.84;41.04;102490.50;4991239;28;20048;-70
2023/04/18 01:21:30;;;;;;;7.53;4.40;;;;;;;18.85;40.96;102490.41;5000737;28;20467;-70
2023/04/18 01:23:59;;;;;;;5.72;4.40;;;;;;;18.85;40.91;102485.13;4986070;28;20303;-70
2023/04/18 01:26:25;;;;;;;6.93;4.25;;;;;;;18.87;40.70;102490.31;4998272;28;20041;-73
2023/04/18 01:28:50;;;;;;;6.72;4.35;;;;;;;18.82;40.91;102485.28;4984349;28;20030;-70
2023/04/18 01:31:15;;;;;;;7.25;4.10;;;;;;;18.83;40.81;102476.41;4984400;28;20149;-70
2023/04/18 01:33:41;;;;;;;5.83;4.20;;;;;;;18.83;40.96;102486.13;4984463;28;20420;-69
2023/04/18 01:36:06;;;;;;;6.82;4.10;;;;;;;18.81;40.53;102474.78;5003388;28;20313;-73
2023/04/18 01:38:31;;;;;;;6.22;4.10;;;;;;;18.82;40.50;102480.00;4989078;28;20470;-72
2023/04/18 01:40:57;;;;;;;7.43;4.53;;;;;;;18.80;40.68;102481.88;4983995;28;20103;-70
2023/04/18 01:43:22;;;;;;;5.82;3.85;;;;;;;18.79;40.34;102474.88;4984221;28;20045;-69
2023/04/18 01:45:47;;;;;;;6.60;4.30;;;;;;;18.80;40.41;102475.72;5000728;28;20073;-69
2023/04/18 01:48:13;;;;;;;7.43;3.97;;;;;;;18.77;40.18;102471.50;4988797;28;20268;-71
2023/04/18 01:50:38;;;;;;;5.97;4.13;;;;;;;18.77;40.42;102471.50;4968112;28;20042;-69
2023/04/18 01:53:03;;;;;;;5.72;3.78;;;;;;;18.77;40.29;102468.84;4998395;28;20478;-69
2023/04/18 01:55:28;;;;;;;6.03;4.20;;;;;;;18.76;40.15;102463.66;4993267;28;20076;-69
2023/04/18 01:57:54;;;;;;;5.82;4.10;;;;;;;18.76;40.35;102466.28;4989048;28;20268;-72
2023/04/18 02:00:20;;;;;;;5.72;4.05;;;;;;;18.77;40.31;102466.22;4983550;28;20057;-72
2023/04/18 02:02:45;;;;;;;7.80;4.22;;;;;;;18.76;40.33;102469.78;4992712;28;20042;-70
2023/04/18 02:05:10;;;;;;;5.97;4.03;;;;;;;18.77;40.19;102470.63;4965967;28;20034;-70
2023/04/18 02:07:35;;;;;;;5.90;3.97;;;;;;;18.72;40.09;102462.97;4983660;28;20272;-69
2023/04/18 02:10:01;;;;;;;6.20;3.58;;;;;;;18.68;40.19;102457.00;4983562;28;20100;-70
2023/04/18 02:12:27;;;;;;;6.35;4.30;;;;;;;18.74;40.21;102463.75;4983419;28;20038;-70
2023/04/18 02:14:52;;;;;;;7.07;4.20;;;;;;;18.72;40.11;102465.59;4992439;28;20045;-69
2023/04/18 02:17:24;;;;;;;7.15;4.00;;;;;;;18.70;40.11;102469.28;5000617;28;20068;-71
2023/04/18 02:19:50;;;;;;;7.28;4.50;;;;;;;18.70;40.28;102462.22;5002482;28;20080;-70
2023/04/18 02:22:15;;;;;;;5.32;4.10;;;;;;;18.68;40.19;102458.81;4983968;28;20030;-71
2023/04/18 02:24:41;;;;;;;6.40;4.40;;;;;;;18.70;40.25;102458.72;5001583;28;20081;-72
2023/04/18 02:27:06;;;;;;;5.97;4.43;;;;;;;18.71;40.17;102463.91;4984072;28;20100;-70
2023/04/18 02:29:32;;;;;;;5.80;3.90;;;;;;;18.70;40.01;102456.94;4983770;28;20110;-71
2023/04/18 02:31:57;;;;;;;6.55;3.97;;;;;;;18.71;40.51;102461.28;4985902;28;20041;-70
2023/04/18 02:34:22;;;;;;;6.20;3.85;;;;;;;18.72;40.09;102456.84;4994726;28;20140;-69
2023/04/18 02:36:48;;;;;;;7.22;4.10;;;;;;;18.71;40.22;102460.41;5001334;28;20030;-70
2023/04/18 02:39:13;;;;;;;6.70;4.28;;;;;;;18.70;40.13;102456.09;5002728;28;20036;-70
2023/04/18 02:41:38;;;;;;;5.78;3.92;;;;;;;18.67;40.04;102455.34;5002379;28;20590;-72
2023/04/18 02:44:05;;;;;;;5.63;3.80;;;;;;;18.70;40.24;102459.56;5001176;28;20360;-70
2023/04/18 02:46:31;;;;;;;6.90;4.10;;;;;;;18.69;40.02;102465.78;5000347;28;20030;-69
2023/04/18 02:48:56;;;;;;;7.63;4.28;;;;;;;18.63;39.59;102448.50;4983040;28;20028;-71
2023/04/18 02:51:21;;;;;;;5.15;3.97;;;;;;;18.67;39.69;102460.63;4983001;28;20038;-70
2023/04/18 02:53:47;;;;;;;6.10;3.67;;;;;;;18.68;39.65;102462.28;4986402;28;20352;-71
2023/04/18 02:56:15;;;;;;;6.03;4.00;;;;;;;18.65;39.77;102459.84;4988406;28;20034;-72
2023/04/18 02:58:41;;;;;;;6.68;4.07;;;;;;;18.66;39.69;102461.53;5001903;28;20784;-72
2023/04/18 03:01:06;;;;;;;5.53;4.05;;;;;;;18.66;39.29;102461.53;4994447;28;20073;-69
2023/04/18 03:03:32;;;;;;;5.65;4.03;;;;;;;18.66;39.63;102458.91;5001855;28;20215;-71
2023/04/18 03:05:57;;;;;;;5.68;3.92;;;;;;;18.64;39.86;102463.44;4989902;28;20058;-69
2023/04/18 03:08:22;;;;;;;5.20;4.03;;;;;;;18.62;39.60;102454.72;4982661;28;20038;-70
2023/04/18 03:10:47;;;;;;;6.70;4.50;;;;;;;18.63;39.44;102460.88;4987537;28;20038;-72
2023/04/18 03:13:14;;;;;;;5.55;4.07;;;;;;;18.61;39.54;102454.81;4982143;28;20042;-72
2023/04/18 03:15:39;;;;;;;6.20;4.28;;;;;;;18.60;39.41;102450.50;4987322;28;20105;-69
2023/04/18 03:18:04;;;;;;;5.97;4.00;;;;;;;18.60;39.28;102458.41;4996642;28;20137;-73
2023/04/18 03:20:30;;;;;;;6.18;3.75;;;;;;;18.59;39.50;102459.34;4982334;28;20046;-70
2023/04/18 03:22:55;;;;;;;6.50;3.92;;;;;;;18.58;39.63;102455.00;4986060;28;20041;-70
2023/04/18 03:25:20;;;;;;;5.20;3.60;;;;;;;18.59;39.25;102454.06;4992689;28;20123;-70
2023/04/18 03:27:45;;;;;;;6.50;4.10;;;;;;;18.58;39.28;102455.00;4989141;28;20260;-70
2023/04/18 03:30:12;;;;;;;6.35;4.10;;;;;;;18.57;39.26;102458.59;4988686;28;20048;-72
2023/04/18 03:32:37;;;;;;;6.63;4.15;;;;;;;18.56;39.40;102457.72;4991563;28;20491;-72
2023/04/18 03:35:02;;;;;;;6.57;4.18;;;;;;;18.56;39.07;102455.06;4992026;28;20124;-72
2023/04/18 03:37:28;;;;;;;5.53;4.10;;;;;;;18.57;39.37;102461.22;4999408;28;20037;-69
2023/04/18 03:39:53;;;;;;;5.60;3.88;;;;;;;18.53;39.08;102457.06;4997977;28;20041;-73
2023/04/18 03:42:18;;;;;;;6.80;3.80;;;;;;;18.55;39.09;102463.97;4991577;28;20037;-70
2023/04/18 03:44:44;;;;;;;7.10;4.28;;;;;;;18.54;38.79;102458.75;5001296;28;20049;-70
2023/04/18 03:47:09;;;;;;;8.30;4.40;;;;;;;18.53;39.11;102454.41;4983849;28;20072;-70
2023/04/18 03:49:35;;;;;;;7.15;4.30;;;;;;;18.52;38.97;102457.97;4996708;28;20038;-70
2023/04/18 03:52:00;;;;;;;6.68;4.20;;;;;;;18.52;38.95;102458.84;4989570;28;20026;-73
2023/04/18 03:54:25;;;;;;;6.65;4.10;;;;;;;18.50;38.92;102458.09;4981922;28;20062;-70
2023/04/18 03:56:51;;;;;;;7.13;4.38;;;;;;;18.48;38.96;102458.19;4985022;28;20029;-72
2023/04/18 03:59:16;;;;;;;6.55;4.10;;;;;;;18.48;39.04;102460.81;4988198;28;20042;-71
2023/04/18 04:01:41;;;;;;;5.90;3.97;;;;;;;18.49;38.91;102464.31;4989830;28;20081;-70
2023/04/18 04:04:08;;;;;;;7.32;4.55;;;;;;;18.49;38.91;102459.88;4984186;28;20292;-72
2023/04/18 04:06:33;;;;;;;6.03;4.22;;;;;;;18.48;39.18;102463.47;4989432;28;20072;-68
2023/04/18 04:08:58;;;;;;;5.30;3.70;;;;;;;18.49;39.04;102454.59;4989234;28;20066;-69
2023/04/18 04:11:24;;;;;;;6.57;4.10;;;;;;;18.51;39.16;102457.13;4985792;28;20034;-73
2023/04/18 04:13:50;;;;;;;6.13;4.20;;;;;;;18.48;39.05;102457.31;4984565;28;20038;-69
2023/04/18 04:16:15;;;;;;;5.88;3.78;;;;;;;18.48;39.11;102458.19;4990675;28;20038;-70
2023/04/18 04:18:40;;;;;;;6.82;4.03;;;;;;;18.48;38.86;102459.94;4984275;28;20083;-72
2023/04/18 04:21:05;;;;;;;6.00;4.00;;;;;;;18.48;39.22;102462.59;4996261;28;20043;-70
2023/04/18 04:23:32;;;;;;;6.22;4.13;;;;;;;18.46;39.14;102467.13;5000071;28;20076;-70
2023/04/18 04:25:58;;;;;;;6.90;4.10;;;;;;;18.47;38.96;102464.41;4993637;28;20037;-70
2023/04/18 04:28:25;;;;;;;6.93;4.20;;;;;;;18.48;38.73;102467.88;4999227;28;20034;-71
2023/04/18 04:30:51;;;;;;;6.70;4.00;;;;;;;18.47;38.78;102468.84;4991129;28;20066;-69
2023/04/18 04:33:20;;;;;;;6.10;3.70;;;;;;;18.46;38.85;102469.75;4997407;28;20450;-69
2023/04/18 04:35:46;;;;;;;5.95;3.85;;;;;;;18.44;38.65;102467.22;4996584;28;20062;-69
2023/04/18 04:38:14;;;;;;;5.63;3.70;;;;;;;18.42;38.79;102477.00;4989823;28;20544;-70
2023/04/18 04:40:39;;;;;;;6.10;3.85;;;;;;;18.43;38.89;102477.84;4996549;28;20501;-69
2023/04/18 04:43:04;;;;;;;5.60;3.72;;;;;;;18.42;38.95;102470.84;5003661;28;20034;-70
2023/04/18 04:45:30;;;;;;;6.00;3.95;;;;;;;18.43;38.66;102477.84;4987020;28;20066;-69
2023/04/18 04:47:55;;;;;;;6.43;4.30;;;;;;;18.43;38.82;102467.28;4989654;28;20053;-69
2023/04/18 04:50:20;;;;;;;5.40;3.85;;;;;;;18.43;38.71;102468.13;4997414;28;20135;-70
2023/04/18 04:52:46;;;;;;;6.47;4.40;;;;;;;18.41;38.90;102477.09;5001436;28;20796;-71
2023/04/18 04:55:11;;;;;;;6.20;3.90;;;;;;;18.43;38.98;102480.50;4995209;28;20115;-71
2023/04/18 04:57:36;;;;;;;5.80;3.78;;;;;;;18.43;38.80;102478.69;5000102;28;20264;-72
2023/04/18 05:00:04;;;;;;;6.43;4.43;;;;;;;18.43;38.67;102478.69;5001260;28;20030;-73
2023/04/18 05:02:29;;;;;;;6.78;3.85;;;;;;;18.42;38.37;102481.41;4995220;28;20034;-70
2023/04/18 05:04:54;;;;;;;6.05;3.90;;;;;;;18.39;38.51;102473.66;5004264;28;20036;-70
2023/04/18 05:07:20;;;;;;;5.70;4.00;;;;;;;18.38;38.44;102472.81;5004531;28;20033;-70
2023/04/18 05:09:45;;;;;;;6.32;4.00;;;;;;;18.36;38.88;102476.47;4991998;28;20326;-70
2023/04/18 05:12:10;;;;;;;5.17;3.43;;;;;;;18.37;39.20;102478.19;4990666;28;20033;-70
2023/04/18 05:14:35;;;;;;;5.00;3.43;;;;;;;18.36;39.23;102480.00;4984404;28;20344;-70
2023/04/18 05:17:02;;;;;;;5.73;3.53;;;;;;;18.37;39.44;102475.56;4984850;28;20266;-72
2023/04/18 05:19:28;;;;;;;4.88;3.15;;;;;;;18.39;39.73;102477.19;4984352;28;20748;-70
2023/04/18 05:21:53;;;;;;;4.90;3.25;;;;;;;18.41;39.65;102483.22;4969845;28;20125;-72
2023/04/18 05:24:19;;;;;;;5.15;3.25;;;;;;;18.45;39.48;102487.41;5000016;28;20091;-68
2023/04/18 05:26:44;;;;;;;5.97;3.30;;;;;;;18.45;39.40;102481.25;4990519;28;20129;-68
2023/04/18 05:29:09;;;;;;;5.00;3.20;;;;;;;18.48;39.46;102489.88;4994825;28;20767;-69
2023/04/18 05:31:34;;;;;;;5.68;3.33;;;;;;;18.54;39.23;102485.16;5002052;28;20132;-67
2023/04/18 05:34:00;;;;;;;5.78;3.35;;;;;;;18.56;39.23;102489.41;4983029;28;20030;-69
2023/04/18 05:36:25;;;;;;;4.60;3.05;;;;;;;18.57;39.28;102488.47;4997732;28;20056;-70
2023/04/18 05:38:50;;;;;;;5.53;3.20;;;;;;;18.61;39.04;102497.94;4998918;28;20117;-70
2023/04/18 05:41:16;;;;;;;4.70;3.00;;;;;;;18.65;39.29;102498.59;4988229;28;20038;-69
2023/04/18 05:43:41;;;;;;;4.90;3.03;;;;;;;18.67;39.22;102497.59;4983975;28;20049;-69
2023/04/18 05:46:07;;;;;;;6.07;3.20;;;;;;;18.70;39.09;102495.69;4966183;28;20034;-69
2023/04/18 05:48:33;;;;;;;4.95;3.20;;;;;;;18.72;39.05;102507.84;4992939;28;20030;-70
2023/04/18 05:50:58;;;;;;;4.97;3.22;;;;;;;18.77;38.91;102510.25;4991069;28;20536;-70
2023/04/18 05:53:23;;;;;;;4.65;2.80;;;;;;;18.78;38.91;102506.66;4983315;28;20039;-70
2023/04/18 05:55:49;;;;;;;5.43;3.15;;;;;;;18.82;39.01;102508.22;4983726;28;20062;-69
2023/04/18 05:58:14;;;;;;;5.28;3.20;;;;;;;18.85;38.80;102505.41;4994453;28;20634;-71
2023/04/18 06:00:41;;;;;;;6.45;2.90;;;;;;;18.90;39.02;102513.03;5002692;28;20022;-69
2023/04/18 06:03:06;;;;;;;5.28;3.00;;;;;;;18.90;39.37;102515.69;5002942;28;20041;-70
2023/04/18 06:05:31;;;;;;;6.78;3.42;;;;;;;18.91;39.56;102512.13;4988615;28;20103;-68
2023/04/18 06:07:57;;;;;;;4.90;3.13;;;;;;;18.94;39.73;102520.72;5002983;28;20037;-70
2023/04/18 06:10:22;;;;;;;6.80;3.15;;;;;;;18.95;40.19;102516.28;4996748;28;20125;-70
2023/04/18 06:12:47;;;;;;;4.90;3.00;;;;;;;18.96;40.07;102518.84;4981673;28;20034;-69
2023/04/18 06:15:13;;;;;;;7.03;3.15;;;;;;;19.06;39.98;102518.28;4996147;28;20497;-69
2023/04/18 06:17:38;;;;;;;6.00;3.17;;;;;;;19.13;39.25;102528.41;4993310;28;20026;-68
2023/04/18 06:20:05;;;;;;;5.15;3.30;;;;;;;19.15;39.30;102526.53;5001591;28;20034;-67
2023/04/18 06:22:31;;;;;;;5.93;3.10;;;;;;;19.15;39.36;102531.81;4998531;28;20042;-66
2023/04/18 06:24:56;;;;;;;6.68;3.00;;;;;;;19.17;39.23;102523.81;4999562;28;20123;-68
2023/04/18 06:27:21;;;;;;;5.25;2.83;;;;;;;19.22;39.28;102527.03;4987998;28;20037;-68
2023/04/18 06:29:47;;;;;;;6.85;3.20;;;;;;;19.16;39.96;102530.03;4993506;28;20034;-69
2023/04/18 06:32:12;;;;;;;5.05;3.10;;;;;;;19.10;40.17;102528.59;4988728;28;20493;-68
2023/04/18 06:34:38;;;;;;;5.35;3.00;;;;;;;19.11;40.36;102529.47;4995428;28;20075;-67
2023/04/18 06:37:04;;;;;;;5.97;2.88;;;;;;;19.15;39.87;102528.31;4987331;28;20102;-69
2023/04/18 06:39:30;;;;;;;7.30;3.50;;;;;;;19.18;40.30;102530.78;4986948;28;20045;-71
2023/04/18 06:41:57;;;;;;;6.45;3.15;;;;;;;19.17;40.12;102534.38;4990839;28;20053;-69
2023/04/18 06:44:22;;;;;;;6.80;3.45;;;;;;;19.12;39.68;102529.38;4982581;28;20791;-69
2023/04/18 06:46:48;;;;;;;4.63;3.10;;;;;;;19.15;39.99;102529.19;4984230;28;20026;-69
2023/04/18 06:49:13;;;;;;;5.85;3.42;;;;;;;19.17;39.96;102537.03;4996525;28;20816;-70
2023/04/18 06:51:38;;;;;;;8.65;3.38;;;;;;;19.20;40.08;102542.97;4984270;28;20442;-68
2023/04/18 06:54:04;;;;;;;4.70;3.00;;;;;;;19.22;39.87;102540.25;4988099;28;20498;-68
2023/04/18 06:56:29;;;;;;;7.88;3.10;;;;;;;19.20;40.13;102542.97;4998000;28;20064;-68
2023/04/18 06:58:54;;;;;;;5.40;3.55;;;;;;;19.23;39.95;102541.09;4994136;28;20037;-68
2023/04/18 07:01:20;;;;;;;8.98;3.92;;;;;;;19.18;40.04;102542.22;4983523;28;20221;-69
2023/04/18 07:03:45;;;;;;;4.43;2.95;;;;;;;19.14;40.08;102545.97;4999092;28;20038;-69
2023/04/18 07:06:10;;;;;;;6.00;3.25;;;;;;;19.19;40.17;102558.91;4986876;28;20038;-68
2023/04/18 07:08:36;;;;;;;5.95;3.10;;;;;;;19.23;40.08;102564.88;4964880;28;20109;-67
2023/04/18 07:11:01;;;;;;;7.00;3.45;;;;;;;19.21;40.08;102543.81;4983240;28;20550;-70
2023/04/18 07:13:27;;;;;;;5.47;3.30;;;;;;;19.17;40.28;102553.72;4986503;28;20042;-69
2023/04/18 07:15:52;;;;;;;5.70;3.38;;;;;;;19.14;40.12;102545.97;4990971;28;20053;-68
2023/04/18 07:18:18;;;;;;;6.15;3.25;;;;;;;19.10;40.25;102549.72;4989729;28;20038;-68
2023/04/18 07:20:43;;;;;;;5.63;2.90;;;;;;;19.06;40.41;102548.22;4989950;28;20087;-67
2023/04/18 07:23:11;;;;;;;4.68;3.05;;;;;;;19.03;40.19;102543.13;4992844;28;20030;-68
2023/04/18 07:25:37;;;;;;;4.95;3.15;;;;;;;19.03;40.35;102551.88;5000991;28;20077;-67
2023/04/18 07:28:02;;;;;;;4.80;3.05;;;;;;;19.11;40.18;102556.72;4981499;28;20088;-66
2023/04/18 07:30:28;;;;;;;4.95;3.00;;;;;;;19.11;40.22;102559.38;4982087;28;20026;-66
2023/04/18 07:32:53;;;;;;;6.80;3.30;;;;;;;19.10;40.19;102559.44;4995295;28;20034;-68
2023/04/18 07:35:18;;;;;;;7.30;2.88;;;;;;;19.17;40.42;102551.09;4992322;28;20462;-67
2023/04/18 07:37:44;;;;;;;6.93;3.08;;;;;;;19.24;40.14;102556.00;5001134;28;20036;-68
2023/04/18 07:40:10;;;;;;;6.38;3.15;;;;;;;19.25;39.63;102560.34;5000081;28;20041;-69
2023/04/18 07:42:35;;;;;;;7.45;3.38;;;;;;;19.24;39.47;102564.78;4996781;28;20475;-67
2023/04/18 07:45:01;;;;;;;6.68;3.58;;;;;;;19.24;39.18;102570.06;4986477;28;20034;-68
2023/04/18 07:47:27;;;;;;;5.47;3.15;;;;;;;19.24;39.23;102567.41;4981850;28;20052;-68
2023/04/18 07:49:52;;;;;;;7.03;3.13;;;;;;;19.24;39.33;102564.78;4983848;28;20102;-68
2023/04/18 07:52:18;;;;;;;5.45;2.78;;;;;;;19.24;39.28;102564.78;4995994;28;20084;-68
2023/04/18 07:54:43;;;;;;;5.85;2.95;;;;;;;19.23;39.36;102557.78;4988505;28;20042;-69
2023/04/18 07:57:09;;;;;;;4.63;2.90;;;;;;;19.20;39.61;102561.47;4989449;28;20040;-68
2023/04/18 07:59:35;;;;;;;4.32;2.50;;;;;;;19.17;39.88;102561.66;4996889;28;20531;-70
2023/04/18 08:02:00;;;;;;;5.93;2.92;;;;;;;19.18;39.73;102571.28;4982811;28;20066;-68
2023/04/18 08:04:25;;;;;;;5.50;2.85;;;;;;;19.17;39.60;102572.22;4986216;28;20069;-69
2023/04/18 08:06:50;;;;;;;6.32;3.05;;;;;;;19.15;39.68;102575.88;4984427;28;20050;-69
2023/04/18 08:09:17;;;;;;;4.70;2.80;;;;;;;19.15;39.65;102576.75;4993008;28;20040;-67
2023/04/18 08:11:43;;;;;;;4.78;2.80;;;;;;;19.16;39.64;102577.59;4993285;28;20092;-69
2023/04/18 08:14:08;;;;;;;5.25;2.78;;;;;;;19.14;39.59;102574.19;4995644;28;20030;-68
2023/04/18 08:16:34;;;;;;;4.65;2.67;;;;;;;19.13;39.48;102578.63;4999235;28;20898;-68
2023/04/18 08:18:59;;;;;;;5.63;2.90;;;;;;;19.14;39.55;102577.69;4966709;28;20520;-69
2023/04/18 08:21:25;;;;;;;3.97;2.47;;;;;;;19.08;39.63;102570.13;4984278;28;20127;-69
2023/04/18 08:23:50;;;;;;;7.05;3.28;;;;;;;19.13;39.65;102588.34;4995214;28;20660;-68
2023/04/18 08:26:16;;;;;;;6.22;2.70;;;;;;;19.09;39.70;102581.53;4985961;28;20538;-68
2023/04/18 08:28:41;;;;;;;4.45;3.13;;;;;;;19.06;39.85;102579.94;4995082;28;20033;-69
2023/04/18 08:31:11;;;;;;;4.40;2.65;;;;;;;19.07;39.80;102578.13;4987455;28;20036;-69
2023/04/18 08:33:36;;;;;;;5.03;2.95;;;;;;;19.07;39.79;102583.41;4982152;28;20048;-70
2023/04/18 08:36:02;;;;;;;5.00;2.75;;;;;;;19.07;39.82;102583.41;4990377;28;20041;-70
2023/04/18 08:38:27;;;;;;;5.05;2.70;;;;;;;19.08;39.64;102591.25;4983627;28;20037;-69
2023/04/18 08:40:53;;;;;;;5.75;2.80;;;;;;;19.05;39.76;102574.72;5000711;28;20036;-69
2023/04/18 08:43:18;;;;;;;5.15;2.50;;;;;;;19.03;39.81;102578.31;5000724;28;20390;-70
2023/04/18 08:45:44;;;;;;;4.40;2.58;;;;;;;19.01;39.77;102572.28;4990152;28;20044;-68
2023/04/18 08:48:14;;;;;;;4.60;2.80;;;;;;;18.97;39.62;102572.53;4997187;28;20034;-69
2023/04/18 08:50:40;;;;;;;4.80;2.78;;;;;;;18.99;39.77;102576.78;4982263;28;20531;-69
2023/04/18 08:53:05;;;;;;;4.45;2.78;;;;;;;19.00;39.84;102577.63;4963433;28;20045;-68
2023/04/18 08:55:32;;;;;;;4.75;2.75;;;;;;;18.99;39.79;102575.94;4995765;28;20033;-68
2023/04/18 08:57:58;;;;;;;4.55;2.95;;;;;;;18.98;39.88;102572.44;5000728;28;20025;-69
2023/04/18 09:00:24;;;;;;;4.70;2.70;;;;;;;18.97;39.88;102568.09;4975769;28;20034;-69
2023/04/18 09:02:55;;;;;;;4.63;2.50;;;;;;;18.99;39.89;102573.28;4988128;28;20062;-70
2023/04/18 09:05:21;;;;;;;4.40;2.60;;;;;;;19.01;39.93;102566.13;4991678;28;20034;-69
2023/04/18 09:07:48;;;;;;;4.95;2.75;;;;;;;19.01;39.82;102555.56;4989393;28;20089;-68
2023/04/18 09:10:31;;;;;;;4.95;2.75;;;;;;;18.98;40.01;102567.16;4984802;28;20445;-68
2023/04/18 09:12:58;;;;;;;4.25;2.50;;;;;;;18.98;40.03;102563.69;4986130;28;20034;-69
2023/04/18 09:15:28;;;;;;;4.25;2.53;;;;;;;18.96;39.95;102550.56;4993679;28;20038;-69
2023/04/18 09:17:56;;;;;;;4.63;2.80;;;;;;;18.98;40.04;102555.75;4983708;28;20040;-69
2023/04/18 09:20:34;;;;;;;3.80;2.38;;;;;;;18.98;39.97;102550.47;4999111;28;20040;-67
2023/04/18 09:23:02;;;;;;;3.97;2.38;;;;;;;18.96;40.05;102547.91;4987830;28;20084;-69
2023/04/18 09:25:36;;;;;;;4.28;2.50;;;;;;;18.97;40.07;102554.88;4984582;28;20041;-70
2023/04/18 09:28:04;;;;;;;3.80;2.33;;;;;;;18.96;40.11;102547.03;4979299;28;21194;-67
2023/04/18 09:30:36;;;;;;;4.05;2.30;;;;;;;18.96;40.13;102552.31;5003548;28;20061;-69
2023/04/18 09:33:04;;;;;;;4.15;2.20;;;;;;;18.98;40.07;102564.50;4987050;28;20081;-68
2023/04/18 09:35:29;;;;;;;4.47;2.40;;;;;;;18.96;39.91;102550.56;4997087;28;20056;-68
2023/04/18 09:37:54;;;;;;;3.78;2.28;;;;;;;18.95;39.91;102546.19;4992051;28;20479;-69
2023/04/18 09:40:20;;;;;;;3.95;2.20;;;;;;;18.95;40.12;102548.84;4996871;28;20029;-68
2023/04/18 09:42:49;;;;;;;6.13;2.33;;;;;;;18.96;40.24;102541.75;5001914;28;20041;-69
2023/04/18 09:45:15;;;;;;;4.28;2.50;;;;;;;18.94;40.29;102541.00;5003299;28;20125;-69
2023/04/18 09:47:40;;;;;;;4.07;2.58;;;;;;;18.95;39.88;102540.91;4996373;28;20489;-69
2023/04/18 09:50:08;;;;;;;5.13;2.67;;;;;;;18.95;40.06;102548.84;4992695;28;20088;-69
2023/04/18 09:52:38;;;;;;;4.00;2.42;;;;;;;18.95;40.10;102546.19;4999068;28;20389;-69
2023/04/18 09:55:08;;;;;;;4.00;2.33;;;;;;;18.96;40.11;102544.41;4990654;28;20057;-69
2023/04/18 09:57:36;;;;;;;4.38;2.35;;;;;;;18.94;40.03;102541.00;4991629;28;20038;-69
2023/04/18 10:00:16;;;;;;;4.25;2.10;;;;;;;18.95;40.15;102540.91;4992101;28;20033;-69
2023/04/18 10:02:53;;;;;;;3.85;2.28;;;;;;;18.95;40.19;102542.72;4991026;28;20034;-68
2023/04/18 10:05:22;;;;;;;4.82;2.50;;;;;;;18.97;40.31;102546.94;4994266;28;20033;-69
2023/04/18 10:07:48;;;;;;;5.97;2.67;;;;;;;18.97;39.90;102544.31;4991117;28;20479;-69
2023/04/18 10:10:13;;;;;;;4.35;2.40;;;;;;;18.97;39.88;102543.47;4983225;28;20112;-70
2023/04/18 10:12:40;;;;;;;4.35;2.22;;;;;;;18.92;39.82;102538.44;4987483;28;20081;-72
2023/04/18 10:15:07;;;;;;;4.00;2.30;;;;;;;18.97;39.92;102546.09;4993241;28;20038;-69
2023/04/18 10:17:54;;;;;;;4.70;2.40;;;;;;;18.96;39.98;102547.03;4985442;28;20057;-71
2023/04/18 10:20:25;;;;;;;4.03;2.33;;;;;;;18.93;40.23;102540.16;4996199;28;20042;-70
2023/04/18 10:22:53;;;;;;;4.03;2.50;;;;;;;18.96;40.37;102547.91;4965487;28;20050;-70
2023/04/18 10:25:33;;;;;;;4.05;1.92;;;;;;;18.97;40.38;102546.09;4998848;28;20491;-69
2023/04/18 10:28:05;;;;;;;4.30;2.30;;;;;;;18.95;40.65;102538.28;4990868;28;20057;-70
2023/04/18 10:30:39;;;;;;;4.00;2.20;;;;;;;18.98;40.66;102545.19;4990554;28;20092;-69
2023/04/18 10:33:24;;;;;;;10.20;2.40;;;;;;;19.00;40.38;102545.94;4994015;28;20034;-72
2023/04/18 10:35:57;;;;;;;4.18;1.98;;;;;;;19.00;40.54;102548.56;4991583;28;20036;-69
2023/04/18 10:38:23;;;;;;;4.88;2.10;;;;;;;18.97;40.30;102543.47;4986918;28;20034;-72
2023/04/18 10:40:49;;;;;;;4.30;2.10;;;;;;;19.00;40.54;102554.69;4982512;28;20327;-69
2023/04/18 10:43:14;;;;;;;3.72;1.90;;;;;;;18.98;40.50;102545.19;4990579;28;20041;-72
2023/04/18 10:45:40;;;;;;;6.27;2.17;;;;;;;19.00;40.41;102548.56;4995065;28;20041;-69
2023/04/18 10:48:28;;;;;;;3.78;2.00;;;;;;;18.95;40.67;102540.91;4982973;28;20268;-69
2023/04/18 10:51:16;;;;;;;3.60;2.03;;;;;;;18.99;40.58;102541.56;4992734;28;20552;-71
2023/04/18 10:53:52;;;;;;;4.40;2.22;;;;;;;19.04;40.33;102547.44;4982658;28;20128;-68
2023/04/18 10:56:18;;;;;;;4.95;2.03;;;;;;;19.04;40.63;102544.78;4993577;28;20038;-69
2023/04/18 10:58:48;;;;;;;3.72;1.83;;;;;;;18.99;41.20;102536.28;4987791;28;20094;-70
2023/04/18 11:01:17;;;;;;;5.35;1.90;;;;;;;19.15;40.94;102552.09;4991828;28;20045;-68
2023/04/18 11:03:43;;;;;;;5.13;2.10;;;;;;;19.18;40.72;102544.88;4999949;28;20480;-67
2023/04/18 11:06:08;;;;;;;3.40;1.77;;;;;;;19.24;40.51;102550.72;4996166;28;20497;-72
2023/04/18 11:08:34;;;;;;;4.22;2.00;;;;;;;19.21;40.54;102544.66;4993019;28;20037;-71
2023/04/18 11:11:01;;;;;;;8.80;2.03;;;;;;;19.19;40.71;102543.91;4988431;28;20486;-68
2023/04/18 11:13:27;;;;;;;4.53;2.00;;;;;;;19.16;40.70;102546.72;4970879;28;20491;-67
2023/04/18 11:15:52;;;;;;;6.20;1.95;;;;;;;19.13;40.88;102552.19;4987996;28;20046;-68
2023/04/18 11:18:17;;;;;;;5.15;1.90;;;;;;;19.16;40.93;102540.59;4990009;28;20041;-70
2023/04/18 11:20:48;;;;;;;4.85;1.90;;;;;;;19.19;40.86;102543.91;4997735;28;20080;-72